11 agosto 2022

Tempo Codice Tempo metereologico Temp. Vista Base nuvolosa Vento METAR/SPECI
09:00
V
23 °C 10 km+ - 080° 080° 8 kt METAR LFLW 110700Z AUTO 08008KT CAVOK 23/10 Q1019 NOSIG
08:30
V
21 °C 10 km+ - 090° 090° 8 kt METAR LFLW 110630Z AUTO 09008KT CAVOK 21/10 Q1019 NOSIG
08:00
V
19 °C 10 km+ - 080° 080° 9 kt METAR LFLW 110600Z AUTO 08009KT CAVOK 19/09 Q1019 NOSIG
07:30
V
18 °C 10 km+ - 100° 100° 7 kt METAR LFLW 110530Z AUTO 10007KT CAVOK 18/09 Q1018 NOSIG
07:00
V
17 °C 10 km+ - 090° 090° 7 kt METAR LFLW 110500Z AUTO 09007KT CAVOK 17/09 Q1018
06:30
V
17 °C 10 km+ - 100° 100° 5 kt METAR LFLW 110430Z AUTO 10005KT CAVOK 17/08 Q1018
06:00
V
17 °C 10 km+ - 080° 080° 8 kt METAR LFLW 110400Z AUTO 08008KT CAVOK 17/08 Q1018
05:30
V
18 °C 10 km+ - 080° 080° 8 kt METAR LFLW 110330Z AUTO 08008KT CAVOK 18/08 Q1018
05:00
V
18 °C 10 km+ - 080° 080° 8 kt METAR LFLW 110300Z AUTO 08008KT CAVOK 18/08 Q1018
04:30
V
18 °C 10 km+ - 090° 090° 6 kt METAR LFLW 110230Z AUTO 09006KT CAVOK 18/08 Q1018
04:00
V
19 °C 10 km+ - 090° 090° 7 kt METAR LFLW 110200Z AUTO 09007KT CAVOK 19/08 Q1018
03:30
V
19 °C 10 km+ - 090° 090° 7 kt METAR LFLW 110130Z AUTO 09007KT CAVOK 19/08 Q1018
03:00
V
20 °C 10 km+ - 090° 090° 6 kt METAR LFLW 110100Z AUTO 09006KT CAVOK 20/08 Q1018
02:30
V
20 °C 10 km+ - 100° 100° 5 kt METAR LFLW 110030Z AUTO 10005KT CAVOK 20/08 Q1018
02:00
V
21 °C 10 km+ - 090° 090° 6 kt METAR LFLW 110000Z AUTO 09006KT CAVOK 21/07 Q1018
01:30
V
22 °C 10 km+ - 120° 120° 8 kt METAR LFLW 102330Z AUTO 12008KT CAVOK 22/07 Q1018
01:00
V
22 °C 10 km+ - 110° 110° 7 kt METAR LFLW 102300Z AUTO 11007KT CAVOK 22/07 Q1018
00:30
V
22 °C 10 km+ - 110° 110° 5 kt METAR LFLW 102230Z AUTO 11005KT CAVOK 22/08 Q1018
00:00
V
21 °C 10 km+ - 120° 120° 5 kt METAR LFLW 102200Z AUTO 12005KT 100V160 CAVOK 21/08 Q1018

10 agosto 2022

Tempo Codice Tempo metereologico Temp. Vista Base nuvolosa Vento METAR/SPECI
23:30
V
23 °C 10 km+ - 100° 100° 4 kt METAR LFLW 102130Z AUTO 10004KT CAVOK 23/08 Q1018
23:00
V
23 °C 10 km+ - 100° 100° 6 kt METAR LFLW 102100Z AUTO 10006KT CAVOK 23/08 Q1018
22:30
V
23 °C 10 km+ - 100° 100° 6 kt METAR LFLW 102030Z AUTO 10006KT CAVOK 23/07 Q1018
22:00
V
24 °C 10 km+ - 120° 120° 5 kt METAR LFLW 102000Z AUTO 12005KT CAVOK 24/08 Q1018
21:30
V
25 °C 10 km+ - Var Var 2 kt METAR LFLW 101930Z AUTO VRB02KT CAVOK 25/06 Q1017
21:00
V
29 °C 10 km+ - Var Var 2 kt METAR LFLW 101900Z AUTO VRB02KT CAVOK 29/04 Q1017
20:30
V
31 °C 10 km+ - 260° 260° 3 kt METAR LFLW 101830Z AUTO 26003KT CAVOK 31/04 Q1017
20:00
V
32 °C 10 km+ - 240° 240° 4 kt METAR LFLW 101800Z AUTO 24004KT 200V290 CAVOK 32/02 Q1017
19:30
V
33 °C 10 km+ - 270° 270° 5 kt METAR LFLW 101730Z AUTO 27005KT 240V310 CAVOK 33/03 Q1017
19:00
V
33 °C 10 km+ - 260° 260° 6 kt METAR LFLW 101700Z AUTO 26006KT 220V300 CAVOK 33/02 Q1017 NOSIG
18:30
V
34 °C 10 km+ - Var Var 4 kt METAR LFLW 101630Z AUTO VRB04KT CAVOK 34/04 Q1017 NOSIG
18:00
V
34 °C 10 km+ - Var Var 4 kt METAR LFLW 101600Z AUTO VRB04KT CAVOK 34/03 Q1017 NOSIG
17:30
V
34 °C 10 km+ - 240° 240° 4 kt METAR LFLW 101530Z AUTO 24004KT 140V300 CAVOK 34/04 Q1017 NOSIG
17:00
V
34 °C 10 km+ - 270° 270° 5 kt METAR LFLW 101500Z AUTO 27005KT 210V330 CAVOK 34/05 Q1018 NOSIG
16:30
V
33 °C 10 km+ - 040° 040° 4 kt METAR LFLW 101430Z AUTO 04004KT 300V100 CAVOK 33/05 Q1018 NOSIG
16:00
V
33 °C 10 km+ - Var Var 4 kt METAR LFLW 101400Z AUTO VRB04KT CAVOK 33/05 Q1018 NOSIG
15:30
V
33 °C 10 km+ - 220° 220° 4 kt METAR LFLW 101330Z AUTO 22004KT 140V290 CAVOK 33/06 Q1018 NOSIG
15:00
V
32 °C 10 km+ - 320° 320° 6 kt METAR LFLW 101300Z AUTO 32006KT 250V060 CAVOK 32/06 Q1019 NOSIG
14:30
V
32 °C 10 km+ - 100° 100° 3 kt METAR LFLW 101230Z AUTO 10003KT 040V150 CAVOK 32/05 Q1019 NOSIG
14:00
V
33 °C 10 km+ - Var Var 5 kt METAR LFLW 101200Z AUTO VRB05KT CAVOK 33/07 Q1019 NOSIG
13:30
V
32 °C 10 km+ - 130° 130° 6 kt METAR LFLW 101130Z AUTO 13006KT 040V180 CAVOK 32/06 Q1019 NOSIG
13:00
V
32 °C 10 km+ - Var Var 5 kt METAR LFLW 101100Z AUTO VRB05KT CAVOK 32/07 Q1019 NOSIG
12:30
V
31 °C 10 km+ - Var Var 5 kt METAR LFLW 101030Z AUTO VRB05KT CAVOK 31/08 Q1020 NOSIG
12:00
V
30 °C 10 km+ - 120° 120° 4 kt METAR LFLW 101000Z AUTO 12004KT 060V210 CAVOK 30/08 Q1020 NOSIG
11:30
V
30 °C 10 km+ - 140° 140° 5 kt METAR LFLW 100930Z AUTO 14005KT 090V190 CAVOK 30/08 Q1020 NOSIG
11:00
V
29 °C 10 km+ - 140° 140° 8 kt METAR LFLW 100900Z AUTO 14008KT 100V190 CAVOK 29/08 Q1020 NOSIG
10:30
V
28 °C 10 km+ - 110° 110° 6 kt METAR LFLW 100830Z AUTO 11006KT 060V150 CAVOK 28/09 Q1020 NOSIG
10:00
V
27 °C 10 km+ - 100° 100° 7 kt METAR LFLW 100800Z AUTO 10007KT 050V130 CAVOK 27/08 Q1020 NOSIG
09:30
V
26 °C 10 km+ - 130° 130° 5 kt METAR LFLW 100730Z AUTO 13005KT CAVOK 26/10 Q1020 NOSIG
09:00
V
23 °C 10 km+ - 100° 100° 4 kt METAR LFLW 100700Z AUTO 10004KT CAVOK 23/09 Q1020 NOSIG
08:30
V
21 °C 10 km+ - 090° 090° 5 kt METAR LFLW 100630Z AUTO 09005KT CAVOK 21/08 Q1020 NOSIG
08:00
V
20 °C 10 km+ - 110° 110° 5 kt METAR LFLW 100600Z AUTO 11005KT CAVOK 20/08 Q1020 NOSIG
07:30
V
19 °C 10 km+ - 100° 100° 6 kt METAR LFLW 100530Z AUTO 10006KT CAVOK 19/08 Q1020 NOSIG
07:00
V
18 °C 10 km+ - 090° 090° 6 kt METAR LFLW 100500Z AUTO 09006KT CAVOK 18/07 Q1020
06:30
V
18 °C 10 km+ - 100° 100° 6 kt METAR LFLW 100430Z AUTO 10006KT CAVOK 18/07 Q1020
06:00
V
19 °C 10 km+ - 090° 090° 5 kt METAR LFLW 100400Z AUTO 09005KT CAVOK 19/07 Q1020
05:30
V
19 °C 10 km+ - 100° 100° 5 kt METAR LFLW 100330Z AUTO 10005KT CAVOK 19/07 Q1020
05:00
V
20 °C 10 km+ - 090° 090° 4 kt METAR LFLW 100300Z AUTO 09004KT CAVOK 20/07 Q1020
04:30
V
20 °C 10 km+ - 110° 110° 3 kt METAR LFLW 100230Z AUTO 11003KT 080V140 CAVOK 20/07 Q1020
04:00
V
19 °C 10 km+ - 130° 130° 4 kt METAR LFLW 100200Z AUTO 13004KT CAVOK 19/06 Q1020
03:30
V
19 °C 10 km+ - 130° 130° 3 kt METAR LFLW 100130Z AUTO 13003KT CAVOK 19/06 Q1020
03:00
V
20 °C 10 km+ - Var Var 2 kt METAR LFLW 100100Z AUTO VRB02KT CAVOK 20/05 Q1020
02:30
V
19 °C 10 km+ - Var Var 3 kt METAR LFLW 100030Z AUTO VRB03KT CAVOK 19/05 Q1020
02:00
V
19 °C 10 km+ - 080° 080° 2 kt METAR LFLW 100000Z AUTO 08002KT CAVOK 19/05 Q1020
01:30
V
20 °C 10 km+ - Var Var 3 kt METAR LFLW 092330Z AUTO VRB03KT CAVOK 20/06 Q1020
01:00
V
21 °C 10 km+ - 070° 070° 3 kt METAR LFLW 092300Z AUTO 07003KT CAVOK 21/05 Q1020
00:30
V
21 °C 10 km+ - 080° 080° 3 kt METAR LFLW 092230Z AUTO 08003KT CAVOK 21/05 Q1020
00:00
V
22 °C 10 km+ - 090° 090° 4 kt METAR LFLW 092200Z AUTO 09004KT CAVOK 22/05 Q1021

9 agosto 2022

Tempo Codice Tempo metereologico Temp. Vista Base nuvolosa Vento METAR/SPECI
23:30
V
22 °C 10 km+ - 110° 110° 5 kt METAR LFLW 092130Z AUTO 11005KT CAVOK 22/06 Q1021
23:00
V
21 °C 10 km+ - Var Var 3 kt METAR LFLW 092100Z AUTO VRB03KT CAVOK 21/06 Q1021
22:30
V
22 °C 10 km+ - 150° 150° 2 kt METAR LFLW 092030Z AUTO 15002KT CAVOK 22/05 Q1021
22:00
V
24 °C 10 km+ - 040° 040° 3 kt METAR LFLW 092000Z AUTO 04003KT CAVOK 24/05 Q1020
21:30
V
26 °C 10 km+ - 070° 070° 4 kt METAR LFLW 091930Z AUTO 07004KT 030V100 CAVOK 26/05 Q1020
21:00
V
27 °C 10 km+ - 050° 050° 6 kt METAR LFLW 091900Z AUTO 05006KT CAVOK 27/04 Q1020
20:30
V
28 °C 10 km+ - 050° 050° 7 kt METAR LFLW 091830Z AUTO 05007KT CAVOK 28/05 Q1020
20:00
V
29 °C 10 km+ - 070° 070° 7 kt METAR LFLW 091800Z AUTO 07007KT 040V110 CAVOK 29/04 Q1019
19:30
V
30 °C 10 km+ - 350° 350° 9 kt METAR LFLW 091730Z AUTO 35009KT 310V020 CAVOK 30/05 Q1019
19:00
V
31 °C 10 km+ - 340° 340° 10 kt METAR LFLW 091700Z AUTO 34010KT CAVOK 31/05 Q1019 NOSIG
18:30
V
32 °C 10 km+ - 320° 320° 6 kt METAR LFLW 091630Z AUTO 32006KT 240V020 CAVOK 32/06 Q1019 NOSIG
18:00
V
33 °C 10 km+ - Var Var 4 kt METAR LFLW 091600Z AUTO VRB04KT CAVOK 33/04 Q1019 NOSIG
17:00
V
33 °C 10 km+ - 290° 290° 5 kt METAR LFLW 091500Z AUTO 29005KT 200V360 CAVOK 33/07 Q1020 NOSIG
16:00
V
32 °C 10 km+ - Var Var 4 kt METAR LFLW 091400Z AUTO VRB04KT CAVOK 32/07 Q1020 NOSIG
15:30
V
32 °C 10 km+ - Var Var 4 kt METAR LFLW 091330Z AUTO VRB04KT CAVOK 32/07 Q1020 NOSIG
15:00
V
32 °C 10 km+ - 140° 140° 4 kt METAR LFLW 091300Z AUTO 14004KT 060V230 CAVOK 32/07 Q1021 NOSIG
14:30
V
31 °C 10 km+ - 050° 050° 3 kt METAR LFLW 091230Z AUTO 05003KT 330V110 CAVOK 31/07 Q1021 NOSIG
14:00
V
31 °C 10 km+ - 100° 100° 6 kt METAR LFLW 091200Z AUTO 10006KT 050V150 CAVOK 31/08 Q1021 NOSIG
13:30
V
31 °C 10 km+ - Var Var 6 kt METAR LFLW 091130Z AUTO VRB06KT CAVOK 31/08 Q1021 NOSIG
13:00
V
30 °C 10 km+ - Var Var 5 kt METAR LFLW 091100Z AUTO VRB05KT CAVOK 30/08 Q1021 NOSIG
12:30
V
30 °C 10 km+ - Var Var 5 kt METAR LFLW 091030Z AUTO VRB05KT CAVOK 30/08 Q1021 NOSIG
12:00
V
29 °C 10 km+ - 140° 140° 6 kt METAR LFLW 091000Z AUTO 14006KT 050V200 CAVOK 29/08 Q1021 NOSIG
11:30
V
29 °C 10 km+ - 100° 100° 7 kt METAR LFLW 090930Z AUTO 10007KT 030V160 CAVOK 29/07 Q1021 NOSIG
11:00
V
28 °C 10 km+ - 100° 100° 7 kt METAR LFLW 090900Z AUTO 10007KT 070V140 CAVOK 28/08 Q1021 NOSIG
10:30
V
27 °C 10 km+ - 120° 120° 7 kt METAR LFLW 090830Z AUTO 12007KT 080V150 CAVOK 27/08 Q1022 NOSIG
10:00
V
26 °C 10 km+ - Var Var 3 kt METAR LFLW 090800Z AUTO VRB03KT CAVOK 26/09 Q1022 NOSIG
09:30
V
24 °C 10 km+ - Var Var 2 kt METAR LFLW 090730Z AUTO VRB02KT CAVOK 24/08 Q1022 NOSIG
09:00
V
22 °C 10 km+ - 070° 070° 3 kt METAR LFLW 090700Z AUTO 07003KT CAVOK 22/07 Q1022 NOSIG
08:30
V
20 °C 10 km+ - Var Var 1 kt METAR LFLW 090630Z AUTO VRB01KT CAVOK 20/08 Q1021 NOSIG
08:00
V
17 °C 10 km+ - Var 000° 0 kt METAR LFLW 090600Z AUTO 00000KT CAVOK 17/09 Q1021 NOSIG
07:30
V
15 °C 10 km+ - Var Var 2 kt METAR LFLW 090530Z AUTO VRB02KT CAVOK 15/06 Q1021 NOSIG
07:00
V
16 °C 10 km+ - Var Var 3 kt METAR LFLW 090500Z AUTO VRB03KT CAVOK 16/05 Q1021
Dati più vecchi

Noi e le terze parti seguiamo il tuo comportamento in internet sul nostro sito web con i cookie. Se continui, riteniamo che tu sia d'accordo con la nostra politica sui cookie. Per saperne di più